Connexion S'enregistrer

Connexion à votre compte

Identifiant
Mot de passe
Maintenir la connexion active sur ce site

Créer un compte

Pour valider ce formulaire, vous devez remplir tous les champs.
Nom
Identifiant
Mot de passe
Répétez le mot de passe
Adresse e-mail
Répétez l'adresse e-mail

METAR/TAF de Chambéry

[source: ADDS]
METAR
LFLB 172100Z AUTO 16001KT 7000 FEW010 OVC032 04/02 Q1023 BECMG 36010KT =
TAF
TAF LFLB 171700Z 1718/1818 36010KT 9000 NSC BECMG 1804/1806 VRB03KT TEMPO 1802/1812 3000 BR BKN012 PROB40 TEMPO 1803/1809 0600 FG VV/// =
SR / SS: 06:39 / 16:03 UTC (Lever/Coucher du soleil le 2017-11-17)

 

Webcam de l'Aéroclub - Parking Lima et SW (réactualisation : 5min)

Cliquer ici pour une animation sur les 3 dernières heures / Cliquer sur l'image pour l'agrandir dans une nouvelle fenêtre

 

Webcam de l'Aéroclub - Manche à air et WA (réactualisation : 5min)

Cliquer ici pour une animation sur les 3 dernières heures / Cliquer sur l'image pour l'agrandir dans une nouvelle fenêtre

 

JSN Boot template designed by JoomlaShine.com